createdAt,value
2018-06-27T00:00:11.393Z,7.45
2018-06-27T00:02:40.835Z,7.55
2018-06-27T00:05:09.440Z,7.25
2018-06-27T00:07:37.925Z,7.90
2018-06-27T00:10:06.417Z,7.50
2018-06-27T00:12:36.110Z,7.33
2018-06-27T00:15:04.801Z,6.85
2018-06-27T00:17:33.431Z,8.00
2018-06-27T00:20:02.012Z,8.10
2018-06-27T00:22:30.580Z,6.40
2018-06-27T00:24:59.253Z,7.53
2018-06-27T00:27:27.996Z,7.50
2018-06-27T00:29:56.734Z,7.53
2018-06-27T00:32:25.192Z,8.40
2018-06-27T00:34:53.677Z,7.53
2018-06-27T00:37:22.411Z,7.97
2018-06-27T00:39:51.097Z,8.10
2018-06-27T00:42:19.676Z,6.95
2018-06-27T00:44:48.240Z,7.45
2018-06-27T00:47:16.844Z,7.72
2018-06-27T00:49:45.525Z,7.80
2018-06-27T00:52:14.227Z,8.85
2018-06-27T00:54:42.835Z,7.87
2018-06-27T00:57:11.402Z,8.40
2018-06-27T00:59:40.065Z,8.05
2018-06-27T01:02:08.648Z,7.35
2018-06-27T01:04:37.233Z,7.15
2018-06-27T01:07:05.661Z,7.53
2018-06-27T01:09:34.377Z,8.73
2018-06-27T01:12:08.425Z,8.70
2018-06-27T01:14:40.826Z,7.97
2018-06-27T01:17:13.507Z,7.28
2018-06-27T01:19:47.085Z,7.37
2018-06-27T01:22:19.873Z,7.12
2018-06-27T01:24:52.648Z,7.62
2018-06-27T01:27:25.278Z,8.20
2018-06-27T01:30:00.302Z,7.85
2018-06-27T01:32:33.377Z,7.55
2018-06-27T01:35:06.117Z,7.75
2018-06-27T01:37:41.853Z,8.50
2018-06-27T01:40:14.273Z,8.20
2018-06-27T01:42:53.643Z,8.03
2018-06-27T01:45:25.904Z,7.35
2018-06-27T01:47:57.764Z,8.58
2018-06-27T01:50:30.660Z,7.65
2018-06-27T01:53:03.225Z,8.63
2018-06-27T01:55:36.474Z,8.13
2018-06-27T01:58:08.849Z,9.43
2018-06-27T02:00:42.719Z,8.10
2018-06-27T02:03:15.791Z,8.28
2018-06-27T02:05:47.897Z,7.55
2018-06-27T02:08:23.404Z,7.78
2018-06-27T02:10:55.407Z,8.28
2018-06-27T02:13:31.811Z,7.28
2018-06-27T02:16:03.706Z,8.70
2018-06-27T02:18:37.335Z,7.62
2018-06-27T02:21:11.059Z,9.10
2018-06-27T02:23:43.737Z,8.23
2018-06-27T02:26:17.626Z,8.83
2018-06-27T02:29:01.272Z,7.70
2018-06-27T02:31:33.977Z,8.40
2018-06-27T02:34:07.777Z,8.15
2018-06-27T02:36:40.338Z,8.70
2018-06-27T02:39:15.245Z,8.10
2018-06-27T02:41:47.722Z,7.75
2018-06-27T02:44:19.571Z,8.58
2018-06-27T02:46:52.042Z,9.43
2018-06-27T02:49:26.301Z,9.73
2018-06-27T02:51:58.012Z,8.15
2018-06-27T02:54:34.012Z,9.00
2018-06-27T02:57:06.660Z,9.48
2018-06-27T02:59:38.416Z,8.30
2018-06-27T03:02:09.950Z,9.53
2018-06-27T03:04:43.357Z,8.95
2018-06-27T03:07:15.792Z,9.10
2018-06-27T03:09:48.331Z,9.50
2018-06-27T03:12:20.875Z,9.20
2018-06-27T03:14:53.557Z,9.15
2018-06-27T03:17:26.392Z,9.70
2018-06-27T03:20:00.296Z,8.70
2018-06-27T03:22:33.798Z,8.30
2018-06-27T03:25:06.609Z,8.70
2018-06-27T03:27:39.626Z,8.25
2018-06-27T03:30:11.356Z,9.38
2018-06-27T03:32:43.210Z,8.93
2018-06-27T03:35:15.573Z,8.90
2018-06-27T03:37:47.107Z,8.50
2018-06-27T03:40:21.094Z,10.10
2018-06-27T03:42:54.701Z,10.32
2018-06-27T03:45:26.372Z,10.28
2018-06-27T03:48:01.900Z,11.33
2018-06-27T03:50:33.674Z,11.03
2018-06-27T03:53:07.243Z,11.25
2018-06-27T03:55:39.579Z,9.65
2018-06-27T03:58:11.314Z,10.05
2018-06-27T04:00:42.634Z,9.95
2018-06-27T04:03:14.251Z,10.08
2018-06-27T04:05:44.919Z,9.58
2018-06-27T04:08:14.948Z,8.73
2018-06-27T04:10:45.376Z,9.53
2018-06-27T04:13:16.867Z,8.75
2018-06-27T04:15:46.376Z,9.03
2018-06-27T04:18:16.641Z,9.35
2018-06-27T04:20:47.108Z,10.30
2018-06-27T04:23:18.133Z,9.53
2018-06-27T04:25:50.627Z,10.15
2018-06-27T04:28:22.412Z,10.40
2018-06-27T04:30:53.973Z,9.65
2018-06-27T04:33:26.587Z,10.03
2018-06-27T04:35:58.147Z,10.53
2018-06-27T04:38:30.236Z,11.00
2018-06-27T04:41:02.675Z,9.53
2018-06-27T04:43:34.153Z,10.30
2018-06-27T04:46:05.704Z,10.30
2018-06-27T04:48:37.286Z,11.55
2018-06-27T04:51:08.442Z,10.20
2018-06-27T04:53:40.179Z,11.40
2018-06-27T04:56:12.215Z,9.93
2018-06-27T04:58:43.240Z,10.05
2018-06-27T05:01:15.003Z,11.78
2018-06-27T05:03:54.519Z,10.18
2018-06-27T05:06:26.127Z,10.20
2018-06-27T05:08:57.372Z,11.03
2018-06-27T05:11:29.010Z,11.55
2018-06-27T05:14:00.590Z,10.70
2018-06-27T05:16:37.609Z,11.15
2018-06-27T05:19:09.085Z,11.15
2018-06-27T05:21:41.170Z,11.45
2018-06-27T05:24:11.469Z,11.48
2018-06-27T05:26:42.829Z,12.25
2018-06-27T05:29:15.453Z,12.13
2018-06-27T05:31:47.018Z,12.55
2018-06-27T05:34:18.188Z,11.48
2018-06-27T05:36:50.484Z,12.20
2018-06-27T05:39:22.578Z,12.90
2018-06-27T05:41:54.695Z,12.85
2018-06-27T05:44:26.292Z,12.60
2018-06-27T05:46:54.929Z,12.37
2018-06-27T05:49:23.718Z,13.32
2018-06-27T05:51:52.844Z,13.88
2018-06-27T05:54:21.635Z,13.00
2018-06-27T05:56:50.178Z,11.60
2018-06-27T05:59:18.902Z,13.75
2018-06-27T06:01:47.843Z,12.82
2018-06-27T06:04:16.696Z,11.78
2018-06-27T06:06:45.329Z,11.68
2018-06-27T06:09:15.092Z,13.43
2018-06-27T06:11:43.872Z,13.00
2018-06-27T06:14:12.745Z,12.28
2018-06-27T06:16:41.803Z,13.30
2018-06-27T06:19:11.606Z,11.70
2018-06-27T06:21:40.659Z,12.20
2018-06-27T06:24:10.083Z,11.35
2018-06-27T06:26:39.027Z,9.68
2018-06-27T06:29:08.190Z,9.90
2018-06-27T06:31:37.069Z,10.65
2018-06-27T06:34:12.799Z,10.80
2018-06-27T06:36:41.776Z,9.80
2018-06-27T06:39:10.864Z,10.58
2018-06-27T06:41:39.931Z,10.55
2018-06-27T06:44:08.858Z,10.90
2018-06-27T06:46:38.142Z,9.60
2018-06-27T06:49:06.786Z,9.28
2018-06-27T06:51:35.709Z,9.25
2018-06-27T06:54:05.693Z,8.48
2018-06-27T06:56:34.732Z,8.90
2018-06-27T06:59:03.640Z,7.85
2018-06-27T07:01:32.865Z,7.97
2018-06-27T07:04:01.699Z,7.85
2018-06-27T07:06:30.836Z,7.23
2018-06-27T07:09:00.227Z,6.67
2018-06-27T07:11:29.652Z,6.60
2018-06-27T07:13:59.119Z,9.13
2018-06-27T07:16:34.063Z,7.73
2018-06-27T07:19:04.409Z,7.00
2018-06-27T07:21:33.390Z,6.33
2018-06-27T07:24:02.525Z,6.67
2018-06-27T07:26:31.260Z,7.77
2018-06-27T07:28:59.805Z,7.33
2018-06-27T07:31:28.556Z,7.60
2018-06-27T07:33:57.924Z,7.10
2018-06-27T07:36:30.266Z,7.60
2018-06-27T07:38:59.771Z,8.10
2018-06-27T07:41:29.941Z,5.67
2018-06-27T07:43:59.299Z,7.13
2018-06-27T07:46:28.669Z,6.07
2018-06-27T07:48:57.878Z,6.90
2018-06-27T07:51:26.738Z,6.80
2018-06-27T07:53:55.630Z,6.40
2018-06-27T07:56:25.801Z,6.23
2018-06-27T07:58:59.225Z,5.83
2018-06-27T08:01:28.522Z,6.47
2018-06-27T08:03:58.405Z,6.47
2018-06-27T08:06:31.709Z,6.60
2018-06-27T08:09:00.345Z,8.00
2018-06-27T08:11:29.189Z,6.80
2018-06-27T08:13:58.674Z,7.07
2018-06-27T08:16:28.117Z,7.37
2018-06-27T08:18:56.757Z,7.47
2018-06-27T08:21:25.908Z,6.80
2018-06-27T08:23:54.575Z,6.87
2018-06-27T08:26:23.090Z,7.60
2018-06-27T08:28:51.450Z,7.20
2018-06-27T08:31:19.845Z,6.80
2018-06-27T08:33:48.289Z,6.03
2018-06-27T08:36:17.125Z,6.83
2018-06-27T08:38:45.662Z,6.23
2018-06-27T08:41:14.171Z,5.97
2018-06-27T08:43:44.028Z,6.00
2018-06-27T08:46:12.514Z,7.30
2018-06-27T08:48:41.072Z,8.70
2018-06-27T08:51:14.541Z,6.10
2018-06-27T08:53:43.162Z,6.17
2018-06-27T08:56:11.602Z,6.83
2018-06-27T08:58:40.294Z,6.40
2018-06-27T09:01:09.148Z,6.50
2018-06-27T09:03:37.942Z,5.50
2018-06-27T09:06:06.582Z,9.23
2018-06-27T09:08:35.259Z,5.33
2018-06-27T09:11:04.008Z,6.57
2018-06-27T09:13:32.850Z,6.80
2018-06-27T09:16:01.408Z,5.67
2018-06-27T09:18:29.941Z,4.80
2018-06-27T09:20:58.440Z,6.57
2018-06-27T09:23:27.029Z,6.30
2018-06-27T09:25:55.540Z,5.90
2018-06-27T09:28:24.616Z,5.67
2018-06-27T09:30:53.392Z,5.40
2018-06-27T09:33:21.961Z,4.97
2018-06-27T09:35:50.359Z,4.57
2018-06-27T09:38:18.765Z,4.37
2018-06-27T09:40:52.147Z,3.20
2018-06-27T09:43:20.550Z,4.00
2018-06-27T09:45:49.992Z,4.27
2018-06-27T09:48:18.494Z,3.70
2018-06-27T09:50:47.156Z,4.20
2018-06-27T09:53:15.785Z,3.60
2018-06-27T09:55:58.873Z,4.53
2018-06-27T09:58:29.351Z,4.27
2018-06-27T10:00:57.962Z,3.77
2018-06-27T10:03:26.619Z,4.43
2018-06-27T10:05:55.117Z,3.90
2018-06-27T10:08:23.524Z,3.90
2018-06-27T10:10:51.933Z,3.40
2018-06-27T10:13:20.419Z,3.93
2018-06-27T10:15:48.847Z,3.47
2018-06-27T10:18:17.386Z,3.60
2018-06-27T10:20:46.389Z,2.90
2018-06-27T10:23:14.937Z,3.07
2018-06-27T10:25:43.367Z,3.20
2018-06-27T10:28:11.984Z,2.70
2018-06-27T10:30:40.354Z,2.67
2018-06-27T10:33:09.634Z,2.70
2018-06-27T10:35:38.052Z,2.93
2018-06-27T10:38:06.413Z,2.87
2018-06-27T10:40:34.916Z,2.40
2018-06-27T10:43:03.338Z,3.33
2018-06-27T10:45:31.715Z,2.67
2018-06-27T10:48:02.154Z,2.73
2018-06-27T10:50:30.863Z,2.80
2018-06-27T10:52:59.269Z,2.50
2018-06-27T10:55:28.919Z,2.50
2018-06-27T10:57:57.638Z,2.30
2018-06-27T11:00:26.769Z,2.03
2018-06-27T11:02:55.156Z,1.90
2018-06-27T11:05:23.766Z,3.60
2018-06-27T11:07:52.407Z,3.20
2018-06-27T11:10:20.937Z,4.07
2018-06-27T11:12:49.345Z,3.27
2018-06-27T11:15:19.710Z,2.43
2018-06-27T11:17:48.611Z,2.77
2018-06-27T11:20:17.906Z,2.40
2018-06-27T11:22:47.170Z,2.43
2018-06-27T11:25:15.665Z,2.40
2018-06-27T11:27:44.440Z,2.23
2018-06-27T11:30:14.564Z,2.80
2018-06-27T11:32:43.084Z,1.93
2018-06-27T11:35:11.520Z,2.27
2018-06-27T11:37:40.974Z,2.70
2018-06-27T11:40:09.818Z,2.90
2018-06-27T11:42:39.516Z,2.03
2018-06-27T11:45:08.671Z,2.20
2018-06-27T11:47:37.875Z,2.33
2018-06-27T11:50:08.609Z,2.13
2018-06-27T11:52:37.362Z,2.30
2018-06-27T11:55:13.310Z,2.30
2018-06-27T11:57:43.714Z,2.03
2018-06-27T12:00:12.150Z,1.73
2018-06-27T12:02:40.668Z,2.70
2018-06-27T12:05:10.268Z,1.87
2018-06-27T12:07:38.745Z,2.30
2018-06-27T12:10:07.283Z,1.97
2018-06-27T12:12:39.167Z,2.30
2018-06-27T12:15:09.069Z,2.10
2018-06-27T12:17:38.506Z,2.40
2018-06-27T12:20:07.368Z,1.80
2018-06-27T12:22:36.702Z,2.10
2018-06-27T12:25:05.973Z,1.83
2018-06-27T12:27:35.020Z,1.93
2018-06-27T12:30:04.250Z,1.80
2018-06-27T12:32:32.933Z,2.17
2018-06-27T12:35:01.989Z,2.20
2018-06-27T12:37:31.968Z,1.80
2018-06-27T12:40:02.725Z,1.60
2018-06-27T12:42:31.357Z,2.63
2018-06-27T12:44:59.755Z,1.57
2018-06-27T12:47:35.272Z,1.83
2018-06-27T12:50:04.839Z,1.93
2018-06-27T12:52:34.191Z,2.10
2018-06-27T12:55:04.201Z,2.60
2018-06-27T12:57:33.711Z,2.90
2018-06-27T13:00:03.208Z,1.97
2018-06-27T13:02:33.700Z,1.97
2018-06-27T13:05:02.326Z,1.63
2018-06-27T13:07:32.262Z,1.40
2018-06-27T13:10:14.345Z,2.10
2018-06-27T13:13:02.410Z,2.30
2018-06-27T13:15:33.080Z,1.63
2018-06-27T13:18:01.543Z,1.90
2018-06-27T13:20:41.386Z,1.93
2018-06-27T13:23:09.838Z,1.60
2018-06-27T13:25:38.348Z,2.77
2018-06-27T13:28:10.245Z,1.77
2018-06-27T13:30:40.209Z,1.77
2018-06-27T13:33:09.104Z,1.80
2018-06-27T13:35:37.630Z,1.97
2018-06-27T13:38:06.866Z,2.27
2018-06-27T13:40:35.486Z,1.77
2018-06-27T13:43:04.053Z,1.97
2018-06-27T13:45:33.375Z,1.87
2018-06-27T13:48:02.353Z,1.70
2018-06-27T13:50:38.804Z,2.13
2018-06-27T13:53:07.641Z,1.73
2018-06-27T13:55:38.058Z,2.03
2018-06-27T13:58:12.998Z,1.93
2018-06-27T14:00:41.487Z,1.97
2018-06-27T14:03:10.428Z,2.00
2018-06-27T14:05:39.060Z,1.67
2018-06-27T14:08:07.769Z,1.90
2018-06-27T14:10:36.809Z,1.80
2018-06-27T14:13:05.644Z,2.20
2018-06-27T14:15:34.812Z,2.27
2018-06-27T14:18:03.512Z,1.67
2018-06-27T14:20:37.868Z,1.93
2018-06-27T14:23:07.089Z,2.50
2018-06-27T14:25:35.593Z,2.00
2018-06-27T14:28:05.770Z,1.93
2018-06-27T14:30:35.260Z,1.50
2018-06-27T14:33:04.334Z,1.90
2018-06-27T14:35:33.164Z,2.57
2018-06-27T14:38:01.882Z,2.20
2018-06-27T14:40:30.934Z,2.07
2018-06-27T14:42:59.693Z,2.07
2018-06-27T14:45:29.060Z,1.70
2018-06-27T14:47:58.643Z,2.33
2018-06-27T14:50:27.149Z,1.90
2018-06-27T14:52:56.138Z,3.10
2018-06-27T14:55:24.895Z,2.00
2018-06-27T14:57:53.843Z,2.30
2018-06-27T15:00:22.934Z,2.10
2018-06-27T15:02:51.400Z,1.67
2018-06-27T15:05:20.117Z,2.03
2018-06-27T15:07:49.255Z,1.63
2018-06-27T15:10:18.801Z,2.03
2018-06-27T15:12:51.390Z,1.90
2018-06-27T15:15:20.937Z,1.90
2018-06-27T15:17:49.885Z,1.87
2018-06-27T15:20:18.516Z,2.07
2018-06-27T15:22:47.526Z,1.70
2018-06-27T15:25:16.417Z,1.93
2018-06-27T15:27:44.828Z,2.10
2018-06-27T15:30:14.334Z,1.90
2018-06-27T15:32:43.749Z,1.97
2018-06-27T15:35:12.553Z,1.90
2018-06-27T15:38:11.671Z,2.03
2018-06-27T15:40:41.139Z,8.90
2018-06-27T15:43:10.379Z,1.80
2018-06-27T15:45:38.930Z,2.60
2018-06-27T15:48:07.601Z,1.90
2018-06-27T15:50:36.366Z,1.90
2018-06-27T15:53:05.219Z,2.23
2018-06-27T15:55:34.486Z,1.83
2018-06-27T15:58:04.159Z,1.93
2018-06-27T16:00:33.869Z,1.77
2018-06-27T16:03:02.870Z,2.00
2018-06-27T16:05:34.490Z,1.70
2018-06-27T16:08:05.701Z,2.00
2018-06-27T16:10:36.755Z,1.87
2018-06-27T16:13:07.130Z,1.90
2018-06-27T16:15:35.749Z,1.70
2018-06-27T16:18:04.964Z,2.07
2018-06-27T16:20:39.717Z,2.00
2018-06-27T16:23:08.339Z,1.77
2018-06-27T16:25:36.957Z,1.70
2018-06-27T16:28:06.026Z,1.60
2018-06-27T16:30:34.638Z,1.53
2018-06-27T16:33:04.558Z,1.80
2018-06-27T16:35:33.276Z,1.90
2018-06-27T16:38:02.277Z,1.57
2018-06-27T16:40:30.950Z,2.10
2018-06-27T16:42:59.503Z,2.23
2018-06-27T16:45:28.670Z,1.83
2018-06-27T16:47:57.334Z,2.60
2018-06-27T16:50:27.441Z,1.57
2018-06-27T16:52:56.293Z,2.00
2018-06-27T16:55:25.334Z,2.07
2018-06-27T16:57:55.436Z,1.90
2018-06-27T17:00:25.917Z,9.57
2018-06-27T17:02:55.120Z,3.63
2018-06-27T17:05:24.430Z,2.70
2018-06-27T17:07:52.846Z,2.70
2018-06-27T17:10:21.716Z,2.23
2018-06-27T17:12:50.444Z,2.40
2018-06-27T17:15:19.346Z,2.53
2018-06-27T17:17:48.191Z,2.53
2018-06-27T17:20:16.773Z,2.80
2018-06-27T17:22:45.995Z,4.63
2018-06-27T17:25:14.632Z,2.77
2018-06-27T17:27:43.726Z,2.30
2018-06-27T17:30:12.444Z,2.33
2018-06-27T17:32:41.171Z,2.90
2018-06-27T17:35:09.762Z,2.50
2018-06-27T17:37:38.520Z,2.33
2018-06-27T17:40:07.546Z,2.43
2018-06-27T17:42:35.903Z,2.20
2018-06-27T17:45:05.433Z,2.43
2018-06-27T17:47:34.364Z,2.30
2018-06-27T17:50:03.072Z,2.23
2018-06-27T17:52:31.716Z,2.53
2018-06-27T17:55:00.692Z,2.33
2018-06-27T17:57:29.615Z,2.60
2018-06-27T17:59:58.219Z,2.17
2018-06-27T18:02:26.942Z,2.00
2018-06-27T18:04:55.674Z,2.37
2018-06-27T18:07:24.160Z,2.80
2018-06-27T18:09:53.133Z,2.37
2018-06-27T18:12:22.313Z,2.47
2018-06-27T18:14:50.756Z,2.10
2018-06-27T18:17:19.542Z,2.83
2018-06-27T18:19:48.613Z,1.83
2018-06-27T18:22:17.132Z,2.00
2018-06-27T18:24:45.809Z,2.20
2018-06-27T18:27:14.459Z,2.13
2018-06-27T18:29:43.465Z,2.20
2018-06-27T18:32:12.098Z,2.40
2018-06-27T18:34:40.659Z,2.47
2018-06-27T18:37:09.606Z,2.30
2018-06-27T18:39:38.314Z,3.13
2018-06-27T18:42:06.820Z,2.50
2018-06-27T18:44:35.793Z,2.80
2018-06-27T18:47:04.519Z,2.27
2018-06-27T18:49:33.000Z,2.20
2018-06-27T18:52:01.675Z,2.30
2018-06-27T18:54:30.133Z,2.30
2018-06-27T18:56:58.863Z,2.30
2018-06-27T18:59:27.627Z,2.13
2018-06-27T19:01:56.185Z,2.00
2018-06-27T19:04:24.780Z,2.00
2018-06-27T19:06:53.717Z,3.50
2018-06-27T19:09:22.485Z,2.00
2018-06-27T19:11:50.878Z,2.20
2018-06-27T19:14:19.527Z,2.57
2018-06-27T19:16:48.151Z,2.13
2018-06-27T19:19:16.589Z,1.90
2018-06-27T19:21:45.533Z,2.60
2018-06-27T19:24:14.042Z,2.43
2018-06-27T19:26:42.930Z,2.60
2018-06-27T19:29:11.539Z,2.10
2018-06-27T19:31:40.525Z,2.00
2018-06-27T19:34:09.390Z,2.20
2018-06-27T19:36:37.848Z,2.13
2018-06-27T19:39:07.566Z,2.70
2018-06-27T19:41:38.794Z,2.03
2018-06-27T19:44:07.693Z,1.87
2018-06-27T19:46:36.529Z,1.90
2018-06-27T19:49:05.033Z,2.17
2018-06-27T19:51:33.742Z,2.23
2018-06-27T19:54:02.429Z,2.40
2018-06-27T19:56:31.071Z,2.13
2018-06-27T19:59:00.030Z,2.63
2018-06-27T20:01:29.388Z,1.93
2018-06-27T20:03:59.856Z,2.60
2018-06-27T20:06:28.313Z,2.17
2018-06-27T20:08:57.117Z,2.20
2018-06-27T20:11:25.594Z,2.20
2018-06-27T20:13:54.632Z,2.50
2018-06-27T20:16:23.212Z,2.00
2018-06-27T20:18:52.337Z,2.73
2018-06-27T20:21:21.250Z,2.00
2018-06-27T20:23:49.945Z,2.00
2018-06-27T20:26:18.607Z,2.30
2018-06-27T20:28:47.286Z,2.53
2018-06-27T20:31:16.054Z,2.10
2018-06-27T20:33:44.846Z,2.37
2018-06-27T20:36:13.722Z,2.47
2018-06-27T20:38:42.477Z,2.10
2018-06-27T20:41:11.315Z,1.93
2018-06-27T20:43:39.696Z,2.00
2018-06-27T20:46:08.386Z,2.00
2018-06-27T20:48:36.955Z,2.67
2018-06-27T20:51:05.825Z,2.40
2018-06-27T20:53:34.409Z,2.37
2018-06-27T20:56:02.883Z,2.40
2018-06-27T20:58:31.683Z,2.63
2018-06-27T21:01:05.329Z,2.60
2018-06-27T21:03:34.242Z,2.00
2018-06-27T21:06:03.112Z,2.60
2018-06-27T21:08:31.860Z,2.87
2018-06-27T21:11:00.676Z,2.20
2018-06-27T21:13:29.729Z,2.27
2018-06-27T21:15:58.561Z,2.30
2018-06-27T21:18:27.689Z,2.33
2018-06-27T21:20:56.375Z,2.03
2018-06-27T21:23:25.057Z,2.13
2018-06-27T21:25:54.103Z,2.40
2018-06-27T21:28:22.947Z,2.20
2018-06-27T21:30:51.592Z,2.53
2018-06-27T21:33:20.213Z,2.10
2018-06-27T21:35:48.935Z,2.20
2018-06-27T21:38:17.678Z,2.53
2018-06-27T21:40:46.217Z,2.23
2018-06-27T21:43:15.010Z,1.53
2018-06-27T21:45:43.613Z,1.90
2018-06-27T21:48:12.174Z,2.27
2018-06-27T21:50:41.146Z,2.20
2018-06-27T21:53:09.780Z,2.30
2018-06-27T21:55:38.502Z,2.10
2018-06-27T21:58:07.190Z,2.20
2018-06-27T22:00:35.761Z,1.80
2018-06-27T22:03:04.697Z,2.10
2018-06-27T22:05:33.481Z,2.30
2018-06-27T22:08:02.203Z,2.50
2018-06-27T22:10:30.840Z,1.97
2018-06-27T22:12:59.322Z,2.20
2018-06-27T22:15:28.125Z,2.20
2018-06-27T22:17:56.807Z,2.13
2018-06-27T22:20:26.040Z,2.33
2018-06-27T22:22:54.709Z,1.90
2018-06-27T22:25:23.432Z,2.50
2018-06-27T22:27:52.255Z,2.40
2018-06-27T22:30:21.010Z,2.27
2018-06-27T22:32:49.692Z,2.23
2018-06-27T22:35:18.281Z,3.00
2018-06-27T22:37:47.123Z,2.13
2018-06-27T22:40:15.842Z,2.30
2018-06-27T22:42:44.577Z,2.10
2018-06-27T22:45:13.321Z,2.20
2018-06-27T22:47:42.198Z,1.90
2018-06-27T22:50:10.839Z,2.27
2018-06-27T22:52:39.371Z,2.30
2018-06-27T22:55:08.164Z,2.30
2018-06-27T22:57:37.094Z,2.20
2018-06-27T23:00:05.939Z,2.40
2018-06-27T23:02:34.607Z,2.17
2018-06-27T23:05:03.384Z,2.40
2018-06-27T23:07:31.975Z,2.20
2018-06-27T23:10:00.792Z,2.50
2018-06-27T23:12:29.794Z,2.97
2018-06-27T23:14:58.548Z,2.40
2018-06-27T23:17:27.276Z,2.22
2018-06-27T23:19:56.087Z,2.40
2018-06-27T23:22:30.370Z,2.55
2018-06-27T23:24:59.321Z,2.70
2018-06-27T23:27:28.173Z,2.35
2018-06-27T23:29:56.864Z,2.43
2018-06-27T23:32:25.683Z,2.53
2018-06-27T23:34:54.630Z,2.80
2018-06-27T23:37:23.360Z,2.67
2018-06-27T23:39:51.957Z,2.52
2018-06-27T23:42:20.585Z,2.12
2018-06-27T23:44:49.867Z,2.77
2018-06-27T23:47:19.165Z,2.22
2018-06-27T23:49:48.389Z,2.67
2018-06-27T23:52:16.998Z,2.45
2018-06-27T23:54:45.684Z,2.60
2018-06-27T23:57:14.355Z,2.50
2018-06-27T23:59:43.066Z,2.40
